Time;durP1;ratioP1;P1;durP2;ratioP2;P2;SDS_P1;SDS_P2;PMS_P1;PMS_P2;Temp;Humidity;BMP_temperature;BMP_pressure;BME280_temperature;BME280_humidity;BME280_pressure;Samples;Min_cycle;Max_cycle;Signal;HPM_P1;HPM_P2
2022/05/15 00:01:30;;;;;;;21.00;7.07;;;10.60;99.90;;;;;;5085039;28;20071;-58
2022/05/15 00:03:56;;;;;;;24.50;7.88;;;10.60;99.90;;;;;;5050762;28;20066;-59
2022/05/15 00:06:22;;;;;;;24.25;7.93;;;10.60;99.90;;;;;;5071301;28;20098;-59
2022/05/15 00:08:49;;;;;;;26.08;6.93;;;10.60;99.90;;;;;;5055153;28;20052;-59
2022/05/15 00:11:19;;;;;;;26.13;7.40;;;10.60;99.90;;;;;;5068150;28;20052;-58
2022/05/15 00:13:47;;;;;;;24.48;7.45;;;10.60;99.90;;;;;;5086644;28;20052;-60
2022/05/15 00:16:14;;;;;;;26.70;8.55;;;10.60;99.90;;;;;;5062372;28;20048;-61
2022/05/15 00:18:40;;;;;;;23.70;8.40;;;10.60;99.90;;;;;;5069150;28;20054;-52
2022/05/15 00:21:10;;;;;;;23.88;7.40;;;10.60;99.90;;;;;;5078765;28;20044;-48
2022/05/15 00:23:37;;;;;;;25.48;8.15;;;10.60;99.90;;;;;;5041153;28;20052;-48
2022/05/15 00:26:03;;;;;;;27.25;8.48;;;10.60;99.90;;;;;;5051041;28;22148;-50
2022/05/15 00:28:29;;;;;;;29.45;8.23;;;10.50;99.90;;;;;;5065566;28;20519;-49
2022/05/15 00:30:56;;;;;;;21.98;7.78;;;10.50;99.90;;;;;;5065805;28;20093;-52
2022/05/15 00:33:22;;;;;;;25.40;7.50;;;10.50;99.90;;;;;;5067971;28;20547;-50
2022/05/15 00:35:50;;;;;;;28.00;7.15;;;10.50;99.90;;;;;;5071997;28;20591;-46
2022/05/15 00:38:16;;;;;;;22.85;7.78;;;10.50;99.90;;;;;;5066020;28;20077;-48
2022/05/15 00:40:48;;;;;;;24.70;8.50;;;10.40;99.90;;;;;;5042105;28;20180;-45
2022/05/15 00:43:40;;;;;;;27.17;8.27;;;10.40;99.90;;;;;;5071227;28;20138;-47
2022/05/15 00:46:09;;;;;;;25.98;7.65;;;10.40;99.90;;;;;;5070833;28;20504;-48
2022/05/15 00:48:35;;;;;;;29.17;7.80;;;10.30;99.90;;;;;;5069336;28;20046;-46
2022/05/15 00:51:08;;;;;;;28.02;8.73;;;10.30;99.90;;;;;;5061083;28;20543;-48
2022/05/15 00:53:35;;;;;;;28.85;8.80;;;10.30;99.90;;;;;;5075323;28;20058;-47
2022/05/15 00:56:03;;;;;;;22.20;7.63;;;10.20;99.90;;;;;;5063192;28;20901;-52
2022/05/15 00:58:35;;;;;;;22.02;8.30;;;10.20;99.90;;;;;;5077128;28;20044;-59
2022/05/15 01:01:04;;;;;;;21.73;8.35;;;10.20;99.90;;;;;;5054179;28;20412;-60
2022/05/15 01:03:31;;;;;;;25.30;8.48;;;10.20;99.90;;;;;;5057395;28;20081;-60
2022/05/15 01:05:58;;;;;;;25.90;9.27;;;10.10;99.90;;;;;;5068090;28;20075;-60
2022/05/15 01:08:29;;;;;;;33.78;8.77;;;10.20;99.90;;;;;;5047792;28;20605;-51
2022/05/15 01:11:05;;;;;;;27.95;7.88;;;10.20;99.90;;;;;;5058278;28;20092;-47
2022/05/15 01:13:34;;;;;;;28.27;8.93;;;10.10;99.90;;;;;;5055890;28;20072;-52
2022/05/15 01:16:01;;;;;;;23.90;7.68;;;10.10;99.90;;;;;;5053483;28;20040;-48
2022/05/15 01:18:34;;;;;;;22.42;8.13;;;10.10;99.90;;;;;;5069166;28;20443;-51
2022/05/15 01:21:02;;;;;;;;;;;10.10;99.90;;;;;;5069693;28;20400;-60
2022/05/15 01:23:32;;;;;;;32.25;8.88;;;10.00;99.90;;;;;;5055297;28;19924;-60
2022/05/15 01:26:00;;;;;;;25.52;8.88;;;10.00;99.90;;;;;;5070635;28;20048;-51
2022/05/15 01:28:28;;;;;;;24.90;8.23;;;9.90;99.90;;;;;;5049479;28;20040;-60
2022/05/15 01:30:59;;;;;;;21.30;7.38;;;10.00;99.90;;;;;;5071449;28;20036;-60
2022/05/15 01:33:26;;;;;;;29.08;9.80;;;9.90;99.90;;;;;;5067194;28;20052;-60
2022/05/15 01:35:52;;;;;;;29.83;8.13;;;9.90;99.90;;;;;;5031287;28;20056;-60
2022/05/15 01:38:19;;;;;;;27.00;8.68;;;9.80;99.90;;;;;;5061139;28;20138;-60
2022/05/15 01:40:47;;;;;;;24.63;8.25;;;9.80;99.90;;;;;;5081841;28;20079;-59
2022/05/15 01:43:13;;;;;;;27.83;8.85;;;9.80;99.90;;;;;;5046221;28;20052;-52
2022/05/15 01:45:40;;;;;;;28.13;8.48;;;9.80;99.90;;;;;;5043655;28;20055;-48
2022/05/15 01:48:06;;;;;;;26.20;8.95;;;9.70;99.90;;;;;;5079176;28;20047;-59
2022/05/15 01:50:34;;;;;;;25.90;8.82;;;9.70;99.90;;;;;;5076735;28;20078;-60
2022/05/15 01:53:00;;;;;;;23.80;8.48;;;9.60;99.90;;;;;;5029511;28;20044;-63
2022/05/15 01:55:27;;;;;;;26.58;8.55;;;9.70;99.90;;;;;;5037486;28;20080;-61
2022/05/15 01:57:53;;;;;;;23.40;7.95;;;9.60;99.90;;;;;;5073999;28;20586;-60
2022/05/15 02:00:24;;;;;;;28.30;9.55;;;9.60;99.90;;;;;;5064448;28;20154;-60
2022/05/15 02:02:51;;;;;;;23.95;7.82;;;9.60;99.90;;;;;;5049283;28;20047;-63
2022/05/15 02:05:19;;;;;;;24.65;8.50;;;9.50;99.90;;;;;;5078207;28;20043;-62
2022/05/15 02:07:47;;;;;;;27.27;7.63;;;9.50;99.90;;;;;;5068938;28;20083;-60
2022/05/15 02:10:13;;;;;;;29.55;8.98;;;9.50;99.90;;;;;;5067339;28;20040;-59
2022/05/15 02:12:40;;;;;;;19.60;8.55;;;9.50;99.90;;;;;;5073743;28;20099;-61
2022/05/15 02:15:07;;;;;;;28.85;9.50;;;9.50;99.90;;;;;;5069162;28;20760;-48
2022/05/15 02:17:35;;;;;;;32.55;8.65;;;9.40;99.90;;;;;;5037280;28;20178;-47
2022/05/15 02:20:02;;;;;;;27.17;8.90;;;9.40;99.90;;;;;;5076333;28;20126;-60
2022/05/15 02:22:28;;;;;;;28.50;8.43;;;9.40;99.90;;;;;;5056837;28;20049;-49
2022/05/15 02:24:55;;;;;;;28.40;9.00;;;9.40;99.90;;;;;;5071154;28;20137;-61
2022/05/15 02:27:22;;;;;;;26.73;10.02;;;9.40;99.90;;;;;;5055310;28;20045;-59
2022/05/15 02:29:48;;;;;;;26.38;9.32;;;9.40;99.90;;;;;;5035963;28;20048;-59
2022/05/15 02:32:15;;;;;;;30.92;9.55;;;9.30;99.90;;;;;;5060814;28;20127;-51
2022/05/15 02:34:41;;;;;;;27.42;9.82;;;9.30;99.90;;;;;;5066236;28;20059;-48
2022/05/15 02:37:07;;;;;;;28.92;9.60;;;9.30;99.90;;;;;;5056179;28;20048;-49
2022/05/15 02:39:34;;;;;;;25.13;8.32;;;9.30;99.90;;;;;;5049057;28;20052;-54
2022/05/15 02:42:01;;;;;;;21.85;8.57;;;9.30;99.90;;;;;;5067773;28;20868;-48
2022/05/15 02:44:30;;;;;;;26.15;8.48;;;9.30;99.90;;;;;;5060840;28;20555;-57
2022/05/15 02:46:56;;;;;;;24.58;9.20;;;9.20;99.90;;;;;;5054298;28;20119;-52
2022/05/15 02:52:08;;;;;;;30.10;9.10;;;9.20;99.90;;;;;;5065816;28;20126;-47
2022/05/15 02:54:35;;;;;;;29.00;8.85;;;9.20;99.90;;;;;;5056576;28;20164;-49
2022/05/15 02:57:04;;;;;;;30.80;9.65;;;9.20;99.90;;;;;;5045018;28;20058;-52
2022/05/15 02:59:31;;;;;;;22.27;7.97;;;9.10;99.90;;;;;;5078415;28;20766;-49
2022/05/15 03:01:59;;;;;;;26.27;9.68;;;9.10;99.90;;;;;;5068002;28;20063;-46
2022/05/15 03:04:25;;;;;;;29.25;9.82;;;9.10;99.90;;;;;;5069749;28;20047;-49
2022/05/15 03:06:51;;;;;;;27.75;9.90;;;9.10;99.90;;;;;;5088746;28;20043;-48
2022/05/15 03:09:17;;;;;;;31.58;9.98;;;9.00;99.90;;;;;;5081950;28;20614;-50
2022/05/15 03:11:44;;;;;;;25.00;8.65;;;9.00;99.90;;;;;;5031077;28;20109;-52
2022/05/15 03:14:10;;;;;;;25.83;9.25;;;9.00;99.90;;;;;;5049748;28;20139;-59
2022/05/15 03:16:36;;;;;;;27.95;9.25;;;9.00;99.90;;;;;;5068716;28;20120;-48
2022/05/15 03:19:03;;;;;;;29.65;9.98;;;9.00;99.90;;;;;;5077332;28;20045;-48
2022/05/15 03:21:29;;;;;;;25.73;9.63;;;9.00;99.90;;;;;;5063792;28;20051;-46
2022/05/15 03:24:03;;;;;;;28.15;10.30;;;9.00;99.90;;;;;;5058794;28;20056;-48
2022/05/15 03:26:32;;;;;;;30.15;10.05;;;9.00;99.90;;;;;;5065207;28;20050;-47
2022/05/15 03:28:58;;;;;;;24.08;9.30;;;8.90;99.90;;;;;;5034762;28;20674;-46
2022/05/15 03:31:26;;;;;;;29.60;9.77;;;8.90;99.90;;;;;;5080138;28;20075;-54
2022/05/15 03:33:52;;;;;;;26.80;9.80;;;8.90;99.90;;;;;;5063971;28;20774;-51
2022/05/15 03:36:19;;;;;;;28.58;11.07;;;8.90;99.90;;;;;;5092012;28;20047;-49
2022/05/15 03:38:46;;;;;;;28.38;9.77;;;8.90;99.90;;;;;;5087151;28;20506;-47
2022/05/15 03:41:13;;;;;;;27.88;10.05;;;8.90;99.90;;;;;;5056631;28;20044;-61
2022/05/15 03:43:40;;;;;;;27.55;9.98;;;8.90;99.90;;;;;;5070822;28;20132;-49
2022/05/15 03:46:07;;;;;;;31.00;10.55;;;8.90;99.90;;;;;;5068777;28;20590;-54
2022/05/15 03:48:34;;;;;;;28.45;9.93;;;8.90;99.90;;;;;;5077559;28;20537;-60
2022/05/15 03:51:00;;;;;;;29.27;9.38;;;8.90;99.90;;;;;;5087182;28;20059;-60
2022/05/15 03:53:27;;;;;;;26.90;9.15;;;8.90;99.90;;;;;;5073508;28;20052;-58
2022/05/15 03:55:56;;;;;;;25.05;9.38;;;8.90;99.90;;;;;;5068508;28;20048;-59
2022/05/15 03:58:27;;;;;;;26.88;9.52;;;8.90;99.90;;;;;;5054949;28;20110;-59
2022/05/15 04:00:53;;;;;;;23.80;8.60;;;8.90;99.90;;;;;;5050838;28;20875;-61
2022/05/15 04:03:21;;;;;;;25.95;9.55;;;8.90;99.90;;;;;;5071920;28;20044;-49
2022/05/15 04:05:48;;;;;;;25.20;9.40;;;8.90;99.90;;;;;;5081142;28;20044;-59
2022/05/15 04:08:14;;;;;;;24.40;9.93;;;8.90;99.90;;;;;;5064847;28;20448;-58
2022/05/15 04:10:41;;;;;;;25.50;10.45;;;8.90;99.90;;;;;;5057492;28;20053;-59
2022/05/15 04:13:07;;;;;;;26.23;10.65;;;8.90;99.90;;;;;;5066074;28;20083;-59
2022/05/15 04:15:33;;;;;;;28.45;8.95;;;8.90;99.90;;;;;;5049081;28;20052;-59
2022/05/15 04:18:00;;;;;;;28.48;10.38;;;9.00;99.90;;;;;;5071930;28;20193;-63
2022/05/15 04:20:28;;;;;;;30.42;10.00;;;9.00;99.90;;;;;;5024525;28;20082;-59
2022/05/15 04:22:56;;;;;;;26.90;9.38;;;9.10;99.90;;;;;;5064049;28;20056;-59
2022/05/15 04:25:22;;;;;;;30.40;9.88;;;9.00;99.90;;;;;;5041969;28;20072;-49
2022/05/15 04:27:49;;;;;;;32.30;10.75;;;9.10;99.90;;;;;;5043721;28;20058;-49
2022/05/15 04:30:20;;;;;;;24.13;9.85;;;9.10;99.90;;;;;;5050942;28;20088;-53
2022/05/15 04:32:46;;;;;;;30.38;9.90;;;9.20;99.90;;;;;;5068254;28;20130;-51
2022/05/15 04:35:12;;;;;;;22.10;9.52;;;9.10;99.90;;;;;;5054398;28;20222;-50
2022/05/15 04:37:39;;;;;;;23.27;9.32;;;9.20;99.90;;;;;;5077290;28;20740;-49
2022/05/15 04:40:07;;;;;;;30.20;10.13;;;9.30;99.90;;;;;;5064954;28;20051;-47
2022/05/15 04:42:33;;;;;;;27.60;10.57;;;9.30;99.90;;;;;;5061699;28;20054;-50
2022/05/15 04:45:00;;;;;;;24.92;9.10;;;9.40;99.90;;;;;;5029755;28;20855;-49
2022/05/15 04:47:26;;;;;;;25.55;9.93;;;9.40;99.90;;;;;;5030591;28;20106;-48
2022/05/15 04:49:52;;;;;;;24.95;9.02;;;9.50;99.90;;;;;;5055062;28;20048;-60
2022/05/15 04:52:18;;;;;;;24.67;10.52;;;9.50;99.90;;;;;;5045528;28;20425;-60
2022/05/15 04:54:44;;;;;;;29.83;10.15;;;9.60;99.90;;;;;;5048804;28;20045;-61
2022/05/15 04:57:11;;;;;;;27.38;9.50;;;9.70;99.90;;;;;;5061718;28;20048;-60
2022/05/15 04:59:37;;;;;;;24.25;10.23;;;9.70;99.90;;;;;;5062156;28;20771;-48
2022/05/15 05:02:04;;;;;;;25.55;9.43;;;9.80;99.90;;;;;;5046683;28;20088;-48
2022/05/15 05:04:30;;;;;;;25.17;9.98;;;10.00;99.90;;;;;;5054380;28;20509;-47
2022/05/15 05:06:56;;;;;;;23.30;9.05;;;10.30;99.90;;;;;;5058565;28;20465;-59
2022/05/15 05:09:22;;;;;;;26.08;10.52;;;10.70;99.90;;;;;;5056189;28;20043;-52
2022/05/15 05:11:48;;;;;;;23.67;9.63;;;11.10;99.90;;;;;;5060492;28;20059;-50
2022/05/15 05:14:15;;;;;;;24.75;9.13;;;11.20;99.90;;;;;;5044746;28;20089;-51
2022/05/15 05:16:41;;;;;;;21.50;8.70;;;11.40;99.90;;;;;;5047523;28;20127;-47
2022/05/15 05:19:07;;;;;;;23.25;7.90;;;11.70;99.90;;;;;;5048852;28;20123;-48
2022/05/15 05:21:33;;;;;;;24.88;9.32;;;11.80;99.90;;;;;;5056615;28;20045;-59
2022/05/15 05:24:00;;;;;;;21.35;8.38;;;11.90;99.90;;;;;;5036835;28;20048;-51
2022/05/15 05:26:26;;;;;;;21.05;7.68;;;12.20;99.90;;;;;;5060769;28;20049;-60
2022/05/15 05:28:52;;;;;;;25.33;8.25;;;12.40;99.90;;;;;;5048831;28;20475;-48
2022/05/15 05:31:19;;;;;;;22.58;7.82;;;12.60;99.90;;;;;;5054267;28;20049;-50
2022/05/15 05:33:46;;;;;;;19.55;7.18;;;12.70;99.90;;;;;;5059796;28;20055;-47
2022/05/15 05:36:12;;;;;;;21.15;7.72;;;12.90;99.90;;;;;;5063950;28;20059;-51
2022/05/15 05:38:39;;;;;;;20.80;7.20;;;12.90;99.90;;;;;;5044187;28;20051;-48
2022/05/15 05:41:05;;;;;;;19.33;7.35;;;13.30;99.90;;;;;;5054732;28;20520;-49
2022/05/15 05:43:32;;;;;;;16.55;7.40;;;13.40;99.90;;;;;;5056828;28;20048;-50
2022/05/15 05:45:59;;;;;;;20.67;6.80;;;13.50;99.90;;;;;;5068700;28;20036;-53
2022/05/15 05:48:25;;;;;;;19.05;7.50;;;13.60;99.90;;;;;;5055855;28;20051;-61
2022/05/15 05:50:51;;;;;;;16.10;6.50;;;13.80;99.90;;;;;;5055207;28;20048;-49
2022/05/15 05:53:17;;;;;;;19.77;7.00;;;13.90;99.90;;;;;;5076428;28;20052;-50
2022/05/15 05:55:44;;;;;;;20.77;6.40;;;14.00;99.90;;;;;;5054556;28;20045;-60
2022/05/15 05:58:10;;;;;;;18.15;6.70;;;14.10;99.90;;;;;;5061034;28;20047;-60
2022/05/15 06:00:40;;;;;;;17.55;6.03;;;14.40;99.90;;;;;;5064086;28;20046;-51
2022/05/15 06:05:51;;;;;;;18.85;6.25;;;14.60;99.90;;;;;;5051116;28;20485;-59
2022/05/15 06:08:18;;;;;;;16.38;5.47;;;14.80;99.90;;;;;;5056540;28;20052;-60
2022/05/15 06:10:46;;;;;;;17.02;5.57;;;14.80;99.90;;;;;;5030914;28;20408;-51
2022/05/15 06:13:12;;;;;;;20.75;6.78;;;14.90;99.90;;;;;;5061313;28;20634;-54
2022/05/15 06:15:40;;;;;;;18.17;5.88;;;15.00;99.90;;;;;;5061403;28;20109;-49
2022/05/15 06:18:07;;;;;;;18.38;5.95;;;14.90;99.90;;;;;;5050148;28;20525;-48
2022/05/15 06:20:33;;;;;;;17.33;6.13;;;15.10;99.90;;;;;;5070114;28;20520;-49
2022/05/15 06:23:00;;;;;;;16.23;5.93;;;14.90;99.90;;;;;;5057961;28;20047;-47
2022/05/15 06:25:26;;;;;;;17.25;6.75;;;15.00;99.90;;;;;;5065303;28;20084;-46
2022/05/15 06:27:52;;;;;;;17.35;5.75;;;15.30;99.90;;;;;;5033932;28;20147;-46
2022/05/15 06:30:19;;;;;;;15.07;5.55;;;15.40;99.90;;;;;;5052983;28;20466;-46
2022/05/15 06:32:46;;;;;;;16.90;5.47;;;15.70;99.90;;;;;;5046086;28;20072;-46
2022/05/15 06:35:14;;;;;;;15.43;4.97;;;15.60;99.90;;;;;;5066941;28;20049;-49
2022/05/15 06:37:41;;;;;;;18.48;5.05;;;15.80;99.90;;;;;;5054605;28;20056;-47
2022/05/15 06:40:09;;;;;;;15.80;5.10;;;16.10;99.90;;;;;;5054282;28;20041;-49
2022/05/15 06:42:37;;;;;;;18.92;5.38;;;16.10;99.90;;;;;;5060134;28;20584;-46
2022/05/15 06:45:05;;;;;;;15.80;5.55;;;16.30;99.90;;;;;;5050118;28;20045;-48
2022/05/15 06:47:32;;;;;;;17.02;6.30;;;16.40;99.90;;;;;;5046981;28;20397;-46
2022/05/15 06:49:58;;;;;;;16.75;5.22;;;16.70;99.90;;;;;;5052255;28;20421;-60
2022/05/15 06:52:27;;;;;;;12.50;5.32;;;16.90;99.90;;;;;;5051749;28;20499;-60
2022/05/15 06:54:54;;;;;;;15.38;4.70;;;17.20;99.90;;;;;;5044832;28;20109;-60
2022/05/15 06:57:29;;;;;;;15.93;5.13;;;17.50;99.90;;;;;;5063745;28;20159;-60
2022/05/15 07:00:16;;;;;;;15.25;4.90;;;17.70;99.90;;;;;;5062546;28;20494;-60
2022/05/15 07:02:42;;;;;;;14.82;4.55;;;18.00;99.90;;;;;;5052037;28;20667;-60
2022/05/15 07:05:16;;;;;;;15.07;5.13;;;18.00;99.90;;;;;;5064394;28;20124;-48
2022/05/15 07:07:43;;;;;;;13.15;3.88;;;18.40;99.90;;;;;;5062855;28;20083;-50
2022/05/15 07:10:10;;;;;;;16.52;5.30;;;18.50;99.90;;;;;;5065383;28;20385;-47
2022/05/15 07:12:36;;;;;;;11.07;3.97;;;18.80;99.90;;;;;;5067241;28;20056;-47
2022/05/15 07:15:03;;;;;;;15.65;4.18;;;19.00;99.90;;;;;;5049808;28;20854;-48
2022/05/15 07:17:30;;;;;;;14.50;4.05;;;19.20;99.90;;;;;;5061139;28;20044;-49
2022/05/15 07:19:57;;;;;;;14.20;4.78;;;19.10;99.90;;;;;;5053752;28;20048;-48
2022/05/15 07:22:23;;;;;;;13.32;4.15;;;19.50;99.90;;;;;;5058260;28;20060;-59
2022/05/15 07:24:49;;;;;;;13.98;4.35;;;19.90;99.90;;;;;;5076030;28;20136;-60
2022/05/15 07:27:15;;;;;;;13.10;4.40;;;20.10;99.90;;;;;;5059398;28;20185;-60
2022/05/15 07:29:42;;;;;;;14.77;4.68;;;20.20;99.90;;;;;;5073769;28;20689;-61
2022/05/15 07:32:09;;;;;;;18.38;9.05;;;20.10;99.90;;;;;;5081075;28;20071;-60
2022/05/15 07:34:40;;;;;;;15.18;5.43;;;20.30;99.90;;;;;;5049676;28;20071;-61
2022/05/15 07:37:08;;;;;;;16.65;5.00;;;20.00;99.90;;;;;;5081774;28;20547;-61
2022/05/15 07:39:35;;;;;;;17.38;4.53;;;20.30;99.90;;;;;;5076279;28;20053;-61
2022/05/15 07:42:01;;;;;;;14.65;5.03;;;20.20;99.90;;;;;;5085541;28;20062;-59
2022/05/15 07:44:27;;;;;;;12.77;4.40;;;20.30;99.90;;;;;;5054615;28;20106;-61
2022/05/15 07:46:53;;;;;;;18.45;7.70;;;20.40;99.90;;;;;;5063724;28;20406;-60
2022/05/15 07:49:19;;;;;;;15.05;7.65;;;20.70;99.90;;;;;;5052547;28;20044;-59
2022/05/15 07:51:45;;;;;;;12.45;4.50;;;20.80;99.90;;;;;;5087907;28;20041;-59
2022/05/15 07:54:13;;;;;;;24.35;14.02;;;20.90;99.90;;;;;;5054374;28;20051;-59
2022/05/15 07:56:40;;;;;;;13.82;4.25;;;21.10;99.90;;;;;;5067269;28;20094;-59
2022/05/15 07:59:06;;;;;;;12.57;3.90;;;21.20;99.90;;;;;;5057930;28;20052;-59
2022/05/15 08:01:34;;;;;;;14.93;4.72;;;21.40;99.90;;;;;;5070340;28;20090;-60
2022/05/15 08:04:00;;;;;;;14.13;4.35;;;21.40;99.90;;;;;;5050854;28;20056;-60
2022/05/15 08:09:11;;;;;;;17.63;8.10;;;21.80;99.30;;;;;;5067753;28;20849;-58
2022/05/15 08:11:37;;;;;;;14.30;5.00;;;21.80;99.60;;;;;;5085501;28;20086;-61
2022/05/15 08:14:06;;;;;;;15.48;5.35;;;22.20;94.00;;;;;;5085194;28;20064;-60
2022/05/15 08:16:36;;;;;;;9.63;4.25;;;22.50;97.20;;;;;;5067217;28;20525;-59
2022/05/15 08:24:33;;;;;;;13.73;4.50;;;22.40;92.80;;;;;;5085420;28;20048;-50
2022/05/15 08:27:00;;;;;;;14.63;4.30;;;22.00;93.50;;;;;;5066710;28;20050;-52
2022/05/15 08:29:26;;;;;;;13.10;4.03;;;22.30;89.10;;;;;;5066950;28;20125;-59
2022/05/15 08:31:52;;;;;;;18.30;6.15;;;22.40;86.60;;;;;;5085656;28;20570;-59
2022/05/15 08:34:19;;;;;;;13.43;4.90;;;22.40;90.40;;;;;;5085405;28;20132;-60
2022/05/15 08:36:45;;;;;;;17.17;5.03;;;22.40;92.00;;;;;;5067467;28;20050;-60
2022/05/15 08:39:12;;;;;;;17.33;4.72;;;22.10;88.30;;;;;;5067087;28;20048;-52
2022/05/15 08:41:45;;;;;;;14.73;4.63;;;22.50;90.40;;;;;;5085590;28;20204;-53
2022/05/15 08:44:18;;;;;;;17.38;6.80;;;22.60;87.50;;;;;;5083770;28;20044;-50
2022/05/15 08:47:03;;;;;;;17.77;6.93;;;22.90;90.30;;;;;;5056924;28;20048;-51
2022/05/15 08:49:51;;;;;;;13.50;4.43;;;23.50;90.70;;;;;;5080410;28;20817;-52
2022/05/15 08:52:21;;;;;;;13.85;5.32;;;23.70;77.00;;;;;;5047293;28;20092;-49
2022/05/15 08:55:17;;;;;;;17.48;7.13;;;23.60;76.30;;;;;;5065397;28;20052;-49
2022/05/15 08:57:54;;;;;;;18.67;11.30;;;23.70;66.60;;;;;;5052470;28;20438;-48
2022/05/15 09:00:40;;;;;;;15.68;5.43;;;24.00;70.00;;;;;;5057122;28;20610;-48
2022/05/15 09:03:16;;;;;;;13.75;3.78;;;24.20;75.50;;;;;;5046688;28;20778;-47
2022/05/15 09:06:03;;;;;;;19.25;9.13;;;24.20;66.30;;;;;;5064677;28;20048;-47
2022/05/15 09:09:06;;;;;;;16.70;5.05;;;24.10;63.70;;;;;;5068843;28;20048;-48
2022/05/15 09:11:48;;;;;;;15.63;4.38;;;24.10;62.20;;;;;;5045917;28;20488;-48
2022/05/15 09:14:39;;;;;;;;;;;24.20;63.40;;;;;;5064860;28;20791;-49
2022/05/15 09:17:21;;;;;;;14.88;4.32;;;24.00;65.30;;;;;;5070455;28;19919;-51
2022/05/15 09:19:56;;;;;;;14.35;4.50;;;24.60;74.10;;;;;;5083670;28;20044;-53
2022/05/15 09:22:26;;;;;;;14.05;4.60;;;24.80;64.50;;;;;;5049148;28;20047;-49
2022/05/15 09:24:52;;;;;;;15.10;4.20;;;24.80;62.40;;;;;;5084663;28;20054;-45
2022/05/15 09:27:24;;;;;;;14.43;4.63;;;24.90;56.90;;;;;;5056124;28;20054;-47
2022/05/15 09:29:59;;;;;;;19.65;8.45;;;24.80;54.90;;;;;;5055416;28;20044;-51
2022/05/15 09:32:38;;;;;;;14.55;4.95;;;25.10;55.00;;;;;;5084484;28;20052;-48
2022/05/15 09:35:15;;;;;;;12.98;4.63;;;25.30;56.40;;;;;;5066144;28;20495;-53
2022/05/15 09:43:32;;;;;;;16.75;8.10;;;26.20;53.70;;;;;;5066195;28;20047;-49
2022/05/15 09:46:10;;;;;;;16.27;6.10;;;26.20;55.40;;;;;;5032974;28;20048;-51
2022/05/15 09:48:41;;;;;;;21.02;10.85;;;26.60;54.60;;;;;;5065571;28;20051;-49
2022/05/15 09:51:13;;;;;;;47.70;42.90;;;26.50;53.70;;;;;;5065149;28;20087;-53
2022/05/15 09:53:43;;;;;;;16.77;4.60;;;26.80;50.00;;;;;;5065642;28;20056;-52
2022/05/15 09:56:31;;;;;;;18.40;5.60;;;26.80;48.60;;;;;;5046050;28;20099;-54
2022/05/15 09:58:59;;;;;;;20.25;9.65;;;27.10;49.50;;;;;;5045848;28;20258;-52
2022/05/15 10:01:49;;;;;;;19.00;10.82;;;27.10;50.30;;;;;;5075645;28;20040;-51
2022/05/15 10:04:25;;;;;;;14.20;4.72;;;27.50;49.00;;;;;;5083158;28;20044;-50
2022/05/15 10:07:00;;;;;;;14.02;6.97;;;27.80;48.20;;;;;;5088256;28;20043;-49
2022/05/15 10:09:32;;;;;;;17.58;6.13;;;27.20;46.10;;;;;;5068406;28;20051;-50
2022/05/15 10:12:04;;;;;;;16.65;6.47;;;27.30;46.00;;;;;;5057865;28;20123;-55
2022/05/15 10:14:46;;;;;;;15.38;6.15;;;27.30;46.50;;;;;;5068976;28;20052;-53
2022/05/15 10:17:14;;;;;;;16.23;7.28;;;27.50;46.80;;;;;;5064982;28;20048;-48
2022/05/15 10:19:47;;;;;;;15.63;5.45;;;27.60;46.40;;;;;;5046699;28;20048;-53
2022/05/15 10:22:35;;;;;;;15.25;4.35;;;27.70;46.90;;;;;;5080558;28;20044;-51
2022/05/15 10:25:25;;;;;;;13.20;4.60;;;28.30;45.40;;;;;;5086973;28;20051;-54
2022/05/15 10:28:04;;;;;;;12.05;3.88;;;27.50;42.40;;;;;;5050319;28;20048;-55
2022/05/15 10:30:42;;;;;;;18.48;5.40;;;27.70;47.80;;;;;;5084390;28;20570;-50
2022/05/15 10:33:17;;;;;;;15.88;5.18;;;27.70;44.90;;;;;;5067412;28;20060;-53
2022/05/15 10:36:01;;;;;;;14.50;5.53;;;28.10;45.20;;;;;;5084793;28;20134;-49
2022/05/15 10:38:37;;;;;;;12.27;5.00;;;28.00;45.00;;;;;;5081368;28;20047;-53
2022/05/15 10:41:20;;;;;;;11.80;4.32;;;27.80;43.90;;;;;;5082401;28;20048;-50
2022/05/15 10:43:58;;;;;;;16.55;4.65;;;27.90;42.50;;;;;;5084072;28;20769;-52
2022/05/15 10:46:48;;;;;;;15.65;9.95;;;27.90;43.30;;;;;;5031571;28;20757;-55
2022/05/15 10:49:33;;;;;;;12.32;4.15;;;27.70;44.10;;;;;;5086279;28;20776;-44
2022/05/15 10:51:59;;;;;;;19.80;10.93;;;27.70;42.20;;;;;;5083209;28;20509;-44
2022/05/15 10:58:07;;;;;;;21.80;15.07;;;28.20;40.90;;;;;;5070779;28;20044;-54
2022/05/15 11:00:38;;;;;;;16.20;5.50;;;28.30;42.80;;;;;;5078034;28;20428;-56
2022/05/15 11:03:27;;;;;;;14.27;7.50;;;28.30;43.10;;;;;;5080732;28;20043;-48
2022/05/15 11:06:24;;;;;;;14.68;7.35;;;28.50;42.50;;;;;;5063269;28;20095;-49
2022/05/15 11:09:21;;;;;;;14.68;7.78;;;28.70;40.70;;;;;;5071927;28;20079;-51
2022/05/15 11:12:14;;;;;;;14.10;5.55;;;28.60;40.10;;;;;;5067687;28;20048;-57
2022/05/15 11:15:05;;;;;;;14.25;5.22;;;27.90;41.30;;;;;;5080853;28;20135;-46
2022/05/15 11:17:45;;;;;;;14.82;5.55;;;28.50;41.60;;;;;;5046264;28;20823;-56
2022/05/15 11:20:17;;;;;;;12.25;4.30;;;28.20;41.50;;;;;;5057722;28;20045;-55
2022/05/15 11:22:48;;;;;;;13.77;4.78;;;28.80;41.40;;;;;;5066383;28;20052;-56
2022/05/15 11:25:27;;;;;;;13.77;3.90;;;28.50;41.70;;;;;;5066882;28;20048;-56
2022/05/15 11:28:05;;;;;;;11.73;3.50;;;28.60;40.00;;;;;;5063663;28;20056;-54
2022/05/15 11:30:43;;;;;;;10.70;3.65;;;28.20;40.50;;;;;;5072563;28;20048;-53
2022/05/15 11:33:24;;;;;;;9.52;3.45;;;28.40;41.80;;;;;;5066473;28;20476;-54
2022/05/15 11:36:29;;;;;;;13.43;4.28;;;28.30;40.60;;;;;;5064685;28;20052;-56
2022/05/15 11:38:55;;;;;;;12.98;4.00;;;28.20;40.50;;;;;;5035883;28;20036;-56
2022/05/15 11:41:34;;;;;;;11.30;3.42;;;27.80;40.80;;;;;;5085923;28;20051;-55
2022/05/15 11:44:20;;;;;;;14.40;4.40;;;27.90;39.30;;;;;;5082587;28;20051;-57
2022/05/15 11:46:49;;;;;;;9.80;3.30;;;27.80;39.40;;;;;;5065374;28;20131;-54
2022/05/15 11:49:35;;;;;;;13.82;4.00;;;27.90;39.90;;;;;;5075589;28;20050;-57
2022/05/15 11:52:12;;;;;;;13.43;4.15;;;28.10;40.60;;;;;;5068266;28;20048;-55
2022/05/15 11:54:50;;;;;;;14.75;3.78;;;28.00;39.40;;;;;;5103933;28;20048;-46
2022/05/15 11:57:52;;;;;;;11.20;3.30;;;27.80;38.80;;;;;;5065661;28;20177;-47
2022/05/15 12:00:25;;;;;;;12.60;3.35;;;27.80;39.50;;;;;;5010718;28;20084;-47
2022/05/15 12:02:53;;;;;;;10.93;3.60;;;28.00;38.80;;;;;;5082166;28;20052;-47
2022/05/15 12:05:58;;;;;;;11.85;3.97;;;28.20;39.30;;;;;;5101009;28;20889;-49
2022/05/15 12:08:28;;;;;;;11.10;3.83;;;28.30;38.80;;;;;;5066271;28;20052;-48
2022/05/15 12:10:58;;;;;;;11.88;4.68;;;28.60;39.20;;;;;;5087734;28;20036;-58
2022/05/15 12:13:34;;;;;;;11.20;4.03;;;28.80;39.20;;;;;;5056643;28;20545;-54
2022/05/15 12:16:19;;;;;;;14.43;7.07;;;28.50;38.40;;;;;;5066004;28;20558;-52
2022/05/15 12:18:58;;;;;;;10.63;3.53;;;28.70;38.30;;;;;;5061082;28;20508;-53
2022/05/15 12:21:38;;;;;;;12.85;6.72;;;28.30;37.70;;;;;;5083181;28;20044;-58
2022/05/15 12:27:07;;;;;;;16.83;7.63;;;28.20;37.10;;;;;;5064002;28;20050;-60
2022/05/15 12:29:58;;;;;;;15.27;7.88;;;28.10;37.10;;;;;;5064593;28;20530;-47
2022/05/15 12:32:29;;;;;;;12.98;3.95;;;27.90;37.00;;;;;;5075813;28;20472;-46
2022/05/15 12:34:57;;;;;;;12.57;4.72;;;28.10;36.80;;;;;;5085524;28;20052;-49
2022/05/15 12:37:31;;;;;;;11.32;3.75;;;27.90;37.70;;;;;;5085602;28;20546;-45
2022/05/15 12:40:01;;;;;;;9.48;3.30;;;27.80;37.90;;;;;;5076656;28;20044;-53
2022/05/15 12:42:33;;;;;;;13.77;3.60;;;28.10;38.20;;;;;;5084477;28;20074;-50
2022/05/15 12:45:07;;;;;;;11.50;3.53;;;28.20;38.50;;;;;;5079628;28;20110;-59
2022/05/15 12:47:33;;;;;;;12.80;3.83;;;28.20;36.80;;;;;;5065014;28;20053;-60
2022/05/15 12:50:21;;;;;;;11.50;3.50;;;28.10;36.80;;;;;;5059699;28;20617;-56
2022/05/15 12:52:57;;;;;;;9.18;4.10;;;28.30;36.60;;;;;;5061805;28;20570;-46
2022/05/15 12:55:29;;;;;;;9.43;3.50;;;28.30;34.70;;;;;;5079466;28;20767;-44
2022/05/15 12:57:58;;;;;;;16.30;10.27;;;28.60;36.80;;;;;;5063802;28;20044;-48
2022/05/15 13:00:30;;;;;;;11.27;3.95;;;28.70;36.20;;;;;;5058274;28;20512;-44
2022/05/15 13:02:59;;;;;;;14.13;6.40;;;28.90;35.80;;;;;;5084317;28;20560;-46
2022/05/15 13:05:50;;;;;;;11.85;4.45;;;28.80;36.10;;;;;;5081911;28;20056;-53
2022/05/15 13:08:17;;;;;;;11.93;3.67;;;29.00;34.60;;;;;;5073331;28;20714;-51
2022/05/15 13:11:00;;;;;;;12.43;5.68;;;28.90;35.00;;;;;;5063247;28;20120;-53
2022/05/15 13:13:30;;;;;;;11.93;3.97;;;29.00;35.10;;;;;;5074981;28;20057;-50
2022/05/15 13:15:58;;;;;;;10.63;4.05;;;28.90;36.20;;;;;;5078557;28;20097;-51
2022/05/15 13:18:30;;;;;;;9.45;3.20;;;28.80;35.60;;;;;;5071925;28;20517;-53
2022/05/15 13:21:04;;;;;;;12.18;3.30;;;29.00;34.80;;;;;;5048361;28;20126;-50
2022/05/15 13:23:37;;;;;;;9.57;3.72;;;29.10;36.00;;;;;;5068735;28;20068;-55
2022/05/15 13:26:06;;;;;;;9.68;4.57;;;29.40;35.30;;;;;;5042013;28;20047;-54